Flight Track Log - Related Links

Times and Time Zones

All times are in EDT time to prevent confusion due to time zone crossing. See the TC-JJG flight status page for this flight to view local times or setup timezone preferences in your user account.

Time Position Orientation Groundspeed Altitude Reporting Facility
EDT Latitude Longitude Course Direction KTS MPH feet Rate Location/Type
Thu 06:02:15 PM 40.9909 28.8589 64° Northeast  Level Estimated
Thu 06:03:15 PM 41.0467 29.0103 64° Northeast  Level Estimated
Thu 06:04:15 PM 41.1024 29.1618 64° Northeast  Level Estimated
Thu 06:05:15 PM 41.1579 29.3137 64° Northeast  Level Estimated
Thu 06:06:15 PM 41.2131 29.4658 64° Northeast  Level Estimated
Thu 06:07:15 PM 41.2682 29.6182 64° Northeast  Level Estimated
Thu 06:08:15 PM 41.3231 29.7708 64° Northeast  Level Estimated
Thu 06:09:15 PM 41.3777 29.9237 65° Northeast  Level Estimated
Thu 06:10:15 PM 41.4322 30.0768 65° Northeast  Level Estimated
Thu 06:11:15 PM 41.4864 30.2302 65° Northeast  Level Estimated
Thu 06:12:15 PM 41.5405 30.3838 65° Northeast  Level Estimated
Thu 06:13:15 PM 41.5943 30.5377 65° Northeast  Level Estimated
Thu 06:14:15 PM 41.6480 30.6919 65° Northeast  Level Estimated
Thu 06:15:15 PM 41.7014 30.8463 65° Northeast  Level Estimated
Thu 06:16:15 PM 41.7546 31.0010 65° Northeast  Level Estimated
Thu 06:17:15 PM 41.8077 31.1559 65° Northeast  Level Estimated
Thu 06:18:15 PM 41.8605 31.3111 66° East  Level Estimated
Thu 06:19:15 PM 41.9131 31.4665 66° East  Level Estimated
Thu 06:20:15 PM 41.9655 31.6222 66° East  Level Estimated
Thu 06:21:15 PM 42.0176 31.7782 66° East  Level Estimated
Thu 06:22:15 PM 42.0696 31.9344 66° East  Level Estimated
Thu 06:23:15 PM 42.1214 32.0909 66° East  Level Estimated
Thu 06:24:15 PM 42.1729 32.2476 66° East  Level Estimated
Thu 06:25:15 PM 42.2242 32.4046 66° East  Level Estimated
Thu 06:26:15 PM 42.2754 32.5618 66° East  Level Estimated
Thu 06:27:15 PM 42.3263 32.7193 66° East  Level Estimated
Thu 06:28:15 PM 42.3769 32.8770 67° East  Level Estimated
Thu 06:29:15 PM 42.4274 33.0350 67° East  Level Estimated
Thu 06:30:15 PM 42.4777 33.1933 67° East  Level Estimated
Thu 06:31:15 PM 42.5277 33.3518 67° East  Level Estimated
Thu 06:32:15 PM 42.5775 33.5105 67° East  Level Estimated
Thu 06:33:15 PM 42.6271 33.6695 67° East  Level Estimated
Thu 06:34:15 PM 42.6765 33.8288 67° East  Level Estimated
Thu 06:35:15 PM 42.7257 33.9883 67° East  Level Estimated
Thu 06:36:15 PM 42.7746 34.1481 67° East  Level Estimated
Thu 06:37:15 PM 42.8233 34.3081 68° East  Level Estimated
Thu 06:38:15 PM 42.8718 34.4684 68° East  Level Estimated
Thu 06:39:15 PM 42.9200 34.6289 68° East  Level Estimated
Thu 06:40:15 PM 42.9681 34.7896 68° East  Level Estimated
Thu 06:41:15 PM 43.0159 34.9507 68° East  Level Estimated
Thu 06:42:15 PM 43.0635 35.1119 68° East  Level Estimated
Thu 06:43:15 PM 43.1108 35.2735 68° East  Level Estimated
Thu 06:44:15 PM 43.1580 35.4352 68° East  Level Estimated
Thu 06:45:15 PM 43.2049 35.5973 68° East  Level Estimated
Thu 06:46:15 PM 43.2516 35.7595 69° East  Level Estimated
Thu 06:47:15 PM 43.2980 35.9220 69° East  Level Estimated
Thu 06:48:15 PM 43.3442 36.0848 69° East  Level Estimated
Thu 06:49:15 PM 43.3902 36.2478 69° East  Level Estimated
Thu 06:50:15 PM 43.4360 36.4111 69° East  Level Estimated
Thu 06:51:15 PM 43.4815 36.5746 69° East  Level Estimated
Thu 06:52:15 PM 43.5268 36.7383 69° East  Level Estimated
Thu 06:53:15 PM 43.5718 36.9023 69° East  Level Estimated
Thu 06:54:15 PM 43.6166 37.0666 69° East  Level Estimated
Thu 06:55:15 PM 43.6612 37.2311 70° East  Level Estimated
Thu 06:56:15 PM 43.7056 37.3958 70° East  Level Estimated
Thu 06:57:15 PM 43.7497 37.5608 70° East  Level Estimated
Thu 06:58:15 PM 43.7935 37.7260 70° East  Level Estimated
Thu 06:59:15 PM 43.8372 37.8915 70° East  Level Estimated
Thu 07:00:15 PM 43.8806 38.0572 70° East  Level Estimated
Thu 07:01:15 PM 43.9237 38.2231 70° East  Level Estimated
Thu 07:02:15 PM 43.9666 38.3893 70° East  Level Estimated
Thu 07:03:15 PM 44.0093 38.5557 70° East  Level Estimated
Thu 07:04:15 PM 44.0518 38.7224 71° East  Level Estimated
Thu 07:05:15 PM 44.0939 38.8893 71° East  Level Estimated
Thu 07:06:15 PM 44.1359 39.0564 71° East  Level Estimated
Thu 07:07:15 PM 44.1776 39.2238 71° East  Level Estimated
Thu 07:08:15 PM 44.2191 39.3914 71° East  Level Estimated
Thu 07:09:15 PM 44.2603 39.5592 71° East  Level Estimated
Thu 07:10:15 PM 44.3012 39.7273 71° East  Level Estimated
Thu 07:11:15 PM 44.3419 39.8956 71° East  Level Estimated
Thu 07:12:15 PM 44.3824 40.0642 71° East  Level Estimated
Thu 07:13:15 PM 44.4226 40.2330 72° East  Level Estimated
Thu 07:14:15 PM 44.4626 40.4020 72° East  Level Estimated
Thu 07:15:15 PM 44.5023 40.5712 72° East  Level Estimated
Thu 07:16:15 PM 44.5418 40.7407 72° East  Level Estimated
Thu 07:17:15 PM 44.5810 40.9104 72° East  Level Estimated
Thu 07:18:15 PM 44.6200 41.0803 72° East  Level Estimated
Thu 07:19:15 PM 44.6587 41.2505 72° East  Level Estimated
Thu 07:20:15 PM 44.6972 41.4208 72° East  Level Estimated
Thu 07:21:15 PM 44.7354 41.5915 73° East  Level Estimated
Thu 07:22:15 PM 44.7733 41.7623 73° East  Level Estimated
Thu 07:23:15 PM 44.8111 41.9334 73° East  Level Estimated
Thu 07:24:15 PM 44.8485 42.1046 73° East  Level Estimated
Thu 07:25:15 PM 44.8857 42.2761 73° East  Level Estimated
Thu 07:26:15 PM 44.9226 42.4479 73° East  Level Estimated
Thu 07:27:15 PM 44.9593 42.6198 73° East  Level Estimated
Thu 07:28:15 PM 44.9957 42.7920 73° East  Level Estimated
Thu 07:29:15 PM 45.0319 42.9644 74° East  Level Estimated
Thu 07:30:15 PM 45.0678 43.1370 74° East  Level Estimated
Thu 07:31:15 PM 45.1034 43.3098 74° East  Level Estimated
Thu 07:32:15 PM 45.1388 43.4828 74° East  Level Estimated
Thu 07:33:15 PM 45.1739 43.6561 74° East  Level Estimated
Thu 07:34:15 PM 45.2088 43.8295 74° East  Level Estimated
Thu 07:35:15 PM 45.2434 44.0032 74° East  Level Estimated
Thu 07:36:15 PM 45.2777 44.1771 74° East  Level Estimated
Thu 07:37:15 PM 45.3117 44.3512 75° East  Level Estimated
Thu 07:38:15 PM 45.3456 44.5255 75° East  Level Estimated
Thu 07:39:15 PM 45.3791 44.7000 75° East  Level Estimated
Thu 07:40:15 PM 45.4123 44.8747 75° East  Level Estimated
Thu 07:41:15 PM 45.4454 45.0496 75° East  Level Estimated
Thu 07:42:15 PM 45.4781 45.2247 75° East  Level Estimated
Thu 07:43:15 PM 45.5106 45.4001 75° East  Level Estimated
Thu 07:44:15 PM 45.5428 45.5756 75° East  Level Estimated
Thu 07:45:15 PM 45.5747 45.7513 76° East  Level Estimated
Thu 07:46:15 PM 45.6063 45.9272 76° East  Level Estimated
Thu 07:47:15 PM 45.6377 46.1034 76° East  Level Estimated
Thu 07:48:15 PM 45.6688 46.2797 76° East  Level Estimated
Thu 07:49:15 PM 45.6997 46.4562 76° East  Level Estimated
Thu 07:50:15 PM 45.7303 46.6329 76° East  Level Estimated
Thu 07:51:15 PM 45.7606 46.8098 76° East  Level Estimated
Thu 07:52:15 PM 45.7906 46.9869 76° East  Level Estimated
Thu 07:53:15 PM 45.8204 47.1642 77° East  Level Estimated
Thu 07:54:15 PM 45.8498 47.3417 77° East  Level Estimated
Thu 07:55:15 PM 45.8790 47.5193 77° East  Level Estimated
Thu 07:56:15 PM 45.9080 47.6972 77° East  Level Estimated
Thu 07:57:15 PM 45.9366 47.8752 77° East  Level Estimated
Thu 07:58:15 PM 45.9650 48.0534 77° East  Level Estimated
Thu 07:59:15 PM 45.9931 48.2318 77° East  Level Estimated
Thu 08:00:15 PM 46.0209 48.4104 77° East  Level Estimated
Thu 08:01:15 PM 46.0485 48.5892 78° East  Level Estimated
Thu 08:02:15 PM 46.0757 48.7681 78° East  Level Estimated
Thu 08:03:15 PM 46.1027 48.9472 78° East  Level Estimated
Thu 08:04:15 PM 46.1294 49.1265 78° East  Level Estimated
Thu 08:05:15 PM 46.1558 49.3059 78° East  Level Estimated
Thu 08:06:15 PM 46.1819 49.4856 78° East  Level Estimated
Thu 08:07:15 PM 46.2078 49.6654 78° East  Level Estimated
Thu 08:08:15 PM 46.2334 49.8453 78° East  Level Estimated
Thu 08:09:15 PM 46.2587 50.0255 79° East  Level Estimated
Thu 08:10:15 PM 46.2837 50.2058 79° East  Level Estimated
Thu 08:11:15 PM 46.3084 50.3862 79° East  Level Estimated
Thu 08:12:15 PM 46.3329 50.5668 79° East  Level Estimated
Thu 08:13:15 PM 46.3570 50.7476 79° East  Level Estimated
Thu 08:14:15 PM 46.3809 50.9286 79° East  Level Estimated
Thu 08:15:15 PM 46.4045 51.1097 79° East  Level Estimated
Thu 08:16:15 PM 46.4278 51.2909 80° East  Level Estimated
Thu 08:17:15 PM 46.4508 51.4724 80° East  Level Estimated
Thu 08:18:15 PM 46.4735 51.6539 80° East  Level Estimated
Thu 08:19:15 PM 46.4960 51.8356 80° East  Level Estimated
Thu 08:20:15 PM 46.5181 52.0175 80° East  Level Estimated
Thu 08:21:15 PM 46.5400 52.1995 80° East  Level Estimated
Thu 08:22:15 PM 46.5616 52.3817 80° East  Level Estimated
Thu 08:23:15 PM 46.5829 52.5640 80° East  Level Estimated
Thu 08:24:15 PM 46.6039 52.7464 81° East  Level Estimated
Thu 08:25:15 PM 46.6246 52.9290 81° East  Level Estimated
Thu 08:26:15 PM 46.6450 53.1117 81° East  Level Estimated
Thu 08:27:15 PM 46.6651 53.2946 81° East  Level Estimated
Thu 08:28:15 PM 46.6850 53.4776 81° East  Level Estimated
Thu 08:29:15 PM 46.7045 53.6607 81° East  Level Estimated
Thu 08:30:15 PM 46.7238 53.8439 81° East  Level Estimated
Thu 08:31:15 PM 46.7427 54.0273 81° East  Level Estimated
Thu 08:32:15 PM 46.7614 54.2108 82° East  Level Estimated
Thu 08:33:15 PM 46.7797 54.3945 82° East  Level Estimated
Thu 08:34:15 PM 46.7978 54.5783 82° East  Level Estimated
Thu 08:35:15 PM 46.8156 54.7621 82° East  Level Estimated
Thu 08:36:15 PM 46.8331 54.9462 82° East  Level Estimated
Thu 08:37:15 PM 46.8503 55.1303 82° East  Level Estimated
Thu 08:38:15 PM 46.8672 55.3145 82° East  Level Estimated
Thu 08:39:15 PM 46.8838 55.4989 83° East  Level Estimated
Thu 08:40:15 PM 46.9001 55.6834 83° East  Level Estimated
Thu 08:41:15 PM 46.9161 55.8680 83° East  Level Estimated
Thu 08:42:15 PM 46.9318 56.0527 83° East  Level Estimated
Thu 08:43:15 PM 46.9472 56.2375 83° East  Level Estimated
Thu 08:44:15 PM 46.9623 56.4224 83° East  Level Estimated
Thu 08:45:15 PM 46.9772 56.6074 83° East  Level Estimated
Thu 08:46:15 PM 46.9917 56.7925 84° East  Level Estimated
Thu 08:47:15 PM 47.0059 56.9777 84° East  Level Estimated
Thu 08:48:15 PM 47.0198 57.1630 84° East  Level Estimated
Thu 08:49:15 PM 47.0335 57.3484 84° East  Level Estimated
Thu 08:50:15 PM 47.0468 57.5339 84° East  Level Estimated
Thu 08:51:15 PM 47.0598 57.7195 84° East  Level Estimated
Thu 08:52:15 PM 47.0725 57.9052 84° East  Level Estimated
Thu 08:53:15 PM 47.0849 58.0910 84° East  Level Estimated
Thu 08:54:15 PM 47.0971 58.2768 85° East  Level Estimated
Thu 08:55:15 PM 47.1089 58.4628 85° East  Level Estimated
Thu 08:56:15 PM 47.1204 58.6488 85° East  Level Estimated
Thu 08:57:15 PM 47.1316 58.8349 85° East  Level Estimated
Thu 08:58:15 PM 47.1426 59.0211 85° East  Level Estimated
Thu 08:59:15 PM 47.1532 59.2073 85° East  Level Estimated
Thu 09:00:15 PM 47.1635 59.3936 85° East  Level Estimated
Thu 09:01:15 PM 47.1735 59.5800 86° East  Level Estimated
Thu 09:02:15 PM 47.1832 59.7665 86° East  Level Estimated
Thu 09:03:15 PM 47.1926 59.9530 86° East  Level Estimated
Thu 09:04:15 PM 47.2017 60.1396 86° East  Level Estimated
Thu 09:05:15 PM 47.2105 60.3263 86° East  Level Estimated
Thu 09:06:15 PM 47.2190 60.5130 86° East  Level Estimated
Thu 09:07:15 PM 47.2272 60.6998 86° East  Level Estimated
Thu 09:08:15 PM 47.2351 60.8866 87° East  Level Estimated
Thu 09:09:15 PM 47.2427 61.0735 87° East  Level Estimated
Thu 09:10:15 PM 47.2500 61.2604 87° East  Level Estimated
Thu 09:11:15 PM 47.2570 61.4474 87° East  Level Estimated
Thu 09:12:15 PM 47.2636 61.6345 87° East  Level Estimated
Thu 09:13:15 PM 47.2700 61.8216 87° East  Level Estimated
Thu 09:14:15 PM 47.2761 62.0087 87° East  Level Estimated
Thu 09:15:15 PM 47.2818 62.1959 87° East  Level Estimated
Thu 09:16:15 PM 47.2873 62.3831 88° East  Level Estimated
Thu 09:17:15 PM 47.2924 62.5704 88° East  Level Estimated
Thu 09:18:15 PM 47.2973 62.7576 88° East  Level Estimated
Thu 09:19:15 PM 47.3018 62.9450 88° East  Level Estimated
Thu 09:20:15 PM 47.3061 63.1323 88° East  Level Estimated
Thu 09:21:15 PM 47.3100 63.3197 88° East  Level Estimated
Thu 09:22:15 PM 47.3136 63.5071 88° East  Level Estimated
Thu 09:23:15 PM 47.3170 63.6945 89° East  Level Estimated
Thu 09:24:15 PM 47.3200 63.8820 89° East  Level Estimated
Thu 09:25:15 PM 47.3227 64.0695 89° East  Level Estimated
Thu 09:26:15 PM 47.3251 64.2570 89° East  Level Estimated
Thu 09:27:15 PM 47.3272 64.4445 89° East  Level Estimated
Thu 09:28:15 PM 47.3290 64.6320 89° East  Level Estimated
Thu 09:29:15 PM 47.3305 64.8195 89° East  Level Estimated
Thu 09:30:15 PM 47.3316 65.0071 90° East  Level Estimated
Thu 09:31:15 PM 47.3325 65.1946 90° East  Level Estimated
Thu 09:32:15 PM 47.3331 65.3822 90° East  Level Estimated
Thu 09:33:15 PM 47.3334 65.5697 90° East  Level Estimated
Thu 09:34:15 PM 47.3333 65.7573 90° East  Level Estimated
Thu 09:35:15 PM 47.3330 65.9448 90° East  Level Estimated
Thu 09:36:15 PM 47.3323 66.1324 90° East  Level Estimated
Thu 09:37:15 PM 47.3313 66.3199 91° East  Level Estimated
Thu 09:38:15 PM 47.3301 66.5075 91° East  Level Estimated
Thu 09:39:15 PM 47.3285 66.6950 91° East  Level Estimated
Thu 09:40:15 PM 47.3266 66.8825 91° East  Level Estimated
Thu 09:41:15 PM 47.3244 67.0700 91° East  Level Estimated
Thu 09:42:15 PM 47.3219 67.2575 91° East  Level Estimated
Thu 09:43:15 PM 47.3191 67.4450 91° East  Level Estimated
Thu 09:44:15 PM 47.3161 67.6324 91° East  Level Estimated
Thu 09:45:15 PM 47.3126 67.8199 92° East  Level Estimated
Thu 09:46:15 PM 47.3089 68.0073 92° East  Level Estimated
Thu 09:47:15 PM 47.3049 68.1946 92° East  Level Estimated
Thu 09:48:15 PM 47.3006 68.3820 92° East  Level Estimated
Thu 09:49:15 PM 47.2960 68.5693 92° East  Level Estimated
Thu 09:50:15 PM 47.2910 68.7566 92° East  Level Estimated
Thu 09:51:15 PM 47.2858 68.9438 92° East  Level Estimated
Thu 09:52:15 PM 47.2802 69.1310 93° East  Level Estimated
Thu 09:53:15 PM 47.2744 69.3182 93° East  Level Estimated
Thu 09:54:15 PM 47.2682 69.5053 93° East  Level Estimated
Thu 09:55:15 PM 47.2618 69.6924 93° East  Level Estimated
Thu 09:56:15 PM 47.2550 69.8794 93° East  Level Estimated
Thu 09:57:15 PM 47.2480 70.0664 93° East  Level Estimated
Thu 09:58:15 PM 47.2406 70.2533 93° East  Level Estimated
Thu 09:59:15 PM 47.2329 70.4402 94° East  Level Estimated
Thu 10:00:15 PM 47.2249 70.6270 94° East  Level Estimated
Thu 10:01:15 PM 47.2166 70.8138 94° East  Level Estimated
Thu 10:02:15 PM 47.2081 71.0005 94° East  Level Estimated
Thu 10:03:15 PM 47.1992 71.1871 94° East  Level Estimated
Thu 10:04:15 PM 47.1900 71.3737 94° East  Level Estimated
Thu 10:05:15 PM 47.1805 71.5602 94° East  Level Estimated
Thu 10:06:15 PM 47.1707 71.7467 94° East  Level Estimated
Thu 10:07:15 PM 47.1606 71.9330 95° East  Level Estimated
Thu 10:08:15 PM 47.1502 72.1193 95° East  Level Estimated
Thu 10:09:15 PM 47.1395 72.3056 95° East  Level Estimated
Thu 10:10:15 PM 47.1285 72.4917 95° East  Level Estimated
Thu 10:11:15 PM 47.1172 72.6778 95° East  Level Estimated
Thu 10:12:15 PM 47.1056 72.8638 95° East  Level Estimated
Thu 10:13:15 PM 47.0937 73.0497 95° East  Level Estimated
Thu 10:14:15 PM 47.0814 73.2355 96° East  Level Estimated
Thu 10:15:15 PM 47.0689 73.4213 96° East  Level Estimated
Thu 10:16:15 PM 47.0561 73.6069 96° East  Level Estimated
Thu 10:17:15 PM 47.0430 73.7925 96° East  Level Estimated
Thu 10:18:15 PM 47.0296 73.9780 96° East  Level Estimated
Thu 10:19:15 PM 47.0159 74.1633 96° East  Level Estimated
Thu 10:20:15 PM 47.0019 74.3486 96° East  Level Estimated
Thu 10:21:15 PM 46.9876 74.5338 97° East  Level Estimated
Thu 10:22:15 PM 46.9730 74.7189 97° East  Level Estimated
Thu 10:23:15 PM 46.9581 74.9038 97° East  Level Estimated
Thu 10:24:15 PM 46.9429 75.0887 97° East  Level Estimated
Thu 10:25:15 PM 46.9274 75.2735 97° East  Level Estimated
Thu 10:26:15 PM 46.9116 75.4582 97° East  Level Estimated
Thu 10:27:15 PM 46.8955 75.6427 97° East  Level Estimated
Thu 10:28:15 PM 46.8791 75.8271 97° East  Level Estimated
Thu 10:29:15 PM 46.8624 76.0115 98° East  Level Estimated
Thu 10:30:15 PM 46.8454 76.1957 98° East  Level Estimated
Thu 10:31:15 PM 46.8282 76.3798 98° East  Level Estimated
Thu 10:32:15 PM 46.8106 76.5638 98° East  Level Estimated
Thu 10:33:15 PM 46.7927 76.7476 98° East  Level Estimated
Thu 10:34:15 PM 46.7746 76.9314 98° East  Level Estimated
Thu 10:35:15 PM 46.7561 77.1150 98° East  Level Estimated
Thu 10:36:15 PM 46.7374 77.2985 99° East  Level Estimated
Thu 10:37:15 PM 46.7183 77.4818 99° East  Level Estimated
Thu 10:38:15 PM 46.6990 77.6650 99° East  Level Estimated
Thu 10:39:15 PM 46.6794 77.8481 99° East  Level Estimated
Thu 10:40:15 PM 46.6595 78.0311 99° East  Level Estimated
Thu 10:41:15 PM 46.6392 78.2139 99° East  Level Estimated
Thu 10:42:15 PM 46.6187 78.3966 99° East  Level Estimated
Thu 10:43:15 PM 46.5979 78.5791 99° East  Level Estimated
Thu 10:44:15 PM 46.5769 78.7615 100° East  Level Estimated
Thu 10:45:15 PM 46.5555 78.9438 100° East  Level Estimated
Thu 10:46:15 PM 46.5338 79.1259 100° East  Level Estimated
Thu 10:47:15 PM 46.5119 79.3079 100° East  Level Estimated
Thu 10:48:15 PM 46.4897 79.4897 100° East  Level Estimated
Thu 10:49:15 PM 46.4671 79.6714 100° East  Level Estimated
Thu 10:50:15 PM 46.4443 79.8529 100° East  Level Estimated
Thu 10:51:15 PM 46.4212 80.0343 101° East  Level Estimated
Thu 10:52:15 PM 46.3979 80.2155 101° East  Level Estimated
Thu 10:53:15 PM 46.3742 80.3965 101° East  Level Estimated
Thu 10:54:15 PM 46.3502 80.5774 101° East  Level Estimated
Thu 10:55:15 PM 46.3260 80.7582 101° East  Level Estimated
Thu 10:56:15 PM 46.3015 80.9388 101° East  Level Estimated
Thu 10:57:15 PM 46.2766 81.1192 101° East  Level Estimated
Thu 10:58:15 PM 46.2516 81.2994 101° East  Level Estimated
Thu 10:59:15 PM 46.2262 81.4795 102° East  Level Estimated
Thu 11:00:15 PM 46.2005 81.6594 102° East  Level Estimated
Thu 11:01:15 PM 46.1746 81.8392 102° East  Level Estimated
Thu 11:02:15 PM 46.1484 82.0188 102° East  Level Estimated
Thu 11:03:15 PM 46.1219 82.1982 102° East  Level Estimated
Thu 11:04:15 PM 46.0951 82.3774 102° East  Level Estimated
Thu 11:05:15 PM 46.0680 82.5565 102° East  Level Estimated
Thu 11:06:15 PM 46.0407 82.7354 102° East  Level Estimated
Thu 11:07:15 PM 46.0131 82.9141 103° East  Level Estimated
Thu 11:08:15 PM 45.9852 83.0926 103° East  Level Estimated
Thu 11:09:15 PM 45.9570 83.2709 103° East  Level Estimated
Thu 11:10:15 PM 45.9285 83.4491 103° East  Level Estimated
Thu 11:11:15 PM 45.8998 83.6271 103° East  Level Estimated
Thu 11:12:15 PM 45.8708 83.8049 103° East  Level Estimated
Thu 11:13:15 PM 45.8415 83.9825 103° East  Level Estimated
Thu 11:14:15 PM 45.8120 84.1599 104° East  Level Estimated
Thu 11:15:15 PM 45.7821 84.3371 104° East  Level Estimated
Thu 11:16:15 PM 45.7520 84.5142 104° East  Level Estimated
Thu 11:17:15 PM 45.7216 84.6910 104° East  Level Estimated
Thu 11:18:15 PM 45.6910 84.8677 104° East  Level Estimated
Thu 11:19:15 PM 45.6601 85.0442 104° East  Level Estimated
Thu 11:20:15 PM 45.6289 85.2204 104° East  Level Estimated
Thu 11:21:15 PM 45.5974 85.3965 104° East  Level Estimated
Thu 11:22:15 PM 45.5657 85.5724 105° East  Level Estimated
Thu 11:23:15 PM 45.5337 85.7480 105° East  Level Estimated
Thu 11:24:15 PM 45.5014 85.9235 105° East  Level Estimated
Thu 11:25:15 PM 45.4689 86.0988 105° East  Level Estimated
Thu 11:26:15 PM 45.4361 86.2738 105° East  Level Estimated
Thu 11:27:15 PM 45.4030 86.4487 105° East  Level Estimated
Thu 11:28:15 PM 45.3696 86.6234 105° East  Level Estimated
Thu 11:29:15 PM 45.3360 86.7978 105° East  Level Estimated
Thu 11:30:15 PM 45.3022 86.9721 106° East  Level Estimated
Thu 11:31:15 PM 45.2680 87.1461 106° East  Level Estimated
Thu 11:32:15 PM 45.2336 87.3199 106° East  Level Estimated
Thu 11:33:15 PM 45.1989 87.4935 106° East  Level Estimated
Thu 11:34:15 PM 45.1640 87.6669 106° East  Level Estimated
Thu 11:35:15 PM 45.1288 87.8401 106° East  Level Estimated
Thu 11:36:15 PM 45.0934 88.0131 106° East  Level Estimated
Thu 11:37:15 PM 45.0577 88.1858 106° East  Level Estimated
Thu 11:38:15 PM 45.0217 88.3584 106° East  Level Estimated
Thu 11:39:15 PM 44.9855 88.5307 107° East  Level Estimated
Thu 11:40:15 PM 44.9490 88.7028 107° East  Level Estimated
Thu 11:41:15 PM 44.9122 88.8747 107° East  Level Estimated
Thu 11:42:15 PM 44.8752 89.0463 107° East  Level Estimated
Thu 11:43:15 PM 44.8380 89.2178 107° East  Level Estimated
Thu 11:44:15 PM 44.8004 89.3890 107° East  Level Estimated
Thu 11:45:15 PM 44.7627 89.5600 107° East  Level Estimated
Thu 11:46:15 PM 44.7246 89.7308 107° East  Level Estimated
Thu 11:47:15 PM 44.6863 89.9013 108° East  Level Estimated
Thu 11:48:15 PM 44.6478 90.0716 108° East  Level Estimated
Thu 11:49:15 PM 44.6090 90.2417 108° East  Level Estimated
Thu 11:50:15 PM 44.5700 90.4116 108° East  Level Estimated
Thu 11:51:15 PM 44.5307 90.5812 108° East  Level Estimated
Thu 11:52:15 PM 44.4911 90.7506 108° East  Level Estimated
Thu 11:53:15 PM 44.4513 90.9198 108° East  Level Estimated
Thu 11:54:15 PM 44.4113 91.0888 108° East  Level Estimated
Thu 11:55:15 PM 44.3710 91.2575 109° East  Level Estimated
Thu 11:56:15 PM 44.3305 91.4260 109° East  Level Estimated
Thu 11:57:15 PM 44.2897 91.5942 109° East  Level Estimated
Thu 11:58:15 PM 44.2486 91.7623 109° East  Level Estimated
Thu 11:59:15 PM 44.2074 91.9300 109° East  Level Estimated
Fri 12:00:15 AM 44.1658 92.0976 109° East  Level Estimated
Fri 12:01:15 AM 44.1241 92.2649 109° East  Level Estimated
Fri 12:02:15 AM 44.0821 92.4320 109° East  Level Estimated
Fri 12:03:15 AM 44.0398 92.5988 109° East  Level Estimated
Fri 12:04:15 AM 43.9973 92.7654 110° East  Level Estimated
Fri 12:05:15 AM 43.9546 92.9317 110° East  Level Estimated
Fri 12:06:15 AM 43.9116 93.0979 110° East  Level Estimated
Fri 12:07:15 AM 43.8684 93.2637 110° East  Level Estimated
Fri 12:08:15 AM 43.8249 93.4294 110° East  Level Estimated
Fri 12:09:15 AM 43.7812 93.5948 110° East  Level Estimated
Fri 12:10:15 AM 43.7373 93.7599 110° East  Level Estimated
Fri 12:11:15 AM 43.6931 93.9248 110° East  Level Estimated
Fri 12:12:15 AM 43.6487 94.0895 111° Southeast  Level Estimated
Fri 12:13:15 AM 43.6040 94.2539 111° Southeast  Level Estimated
Fri 12:14:15 AM 43.5591 94.4181 111° Southeast  Level Estimated
Fri 12:15:15 AM 43.5140 94.5820 111° Southeast  Level Estimated
Fri 12:16:15 AM 43.4687 94.7457 111° Southeast  Level Estimated
Fri 12:17:15 AM 43.4231 94.9091 111° Southeast  Level Estimated
Fri 12:18:15 AM 43.3773 95.0723 111° Southeast  Level Estimated
Fri 12:19:15 AM 43.3312 95.2353 111° Southeast  Level Estimated
Fri 12:20:15 AM 43.2849 95.3980 111° Southeast  Level Estimated
Fri 12:21:15 AM 43.2384 95.5604 112° Southeast  Level Estimated
Fri 12:22:15 AM 43.1917 95.7226 112° Southeast  Level Estimated
Fri 12:23:15 AM 43.1447 95.8846 112° Southeast  Level Estimated
Fri 12:24:15 AM 43.0975 96.0463 112° Southeast  Level Estimated
Fri 12:25:15 AM 43.0501 96.2077 112° Southeast  Level Estimated
Fri 12:26:15 AM 43.0024 96.3689 112° Southeast  Level Estimated
Fri 12:27:15 AM 42.9545 96.5299 112° Southeast  Level Estimated
Fri 12:28:15 AM 42.9064 96.6906 112° Southeast  Level Estimated
Fri 12:29:15 AM 42.8581 96.8510 112° Southeast  Level Estimated
Fri 12:30:15 AM 42.8096 97.0112 113° Southeast  Level Estimated
Fri 12:31:15 AM 42.7608 97.1712 113° Southeast  Level Estimated
Fri 12:32:15 AM 42.7118 97.3308 113° Southeast  Level Estimated
Fri 12:33:15 AM 42.6626 97.4903 113° Southeast  Level Estimated
Fri 12:34:15 AM 42.6131 97.6495 113° Southeast  Level Estimated
Fri 12:35:15 AM 42.5635 97.8084 113° Southeast  Level Estimated
Fri 12:36:15 AM 42.5136 97.9671 113° Southeast  Level Estimated
Fri 12:37:15 AM 42.4635 98.1255 113° Southeast  Level Estimated
Fri 12:38:15 AM 42.4132 98.2837 113° Southeast  Level Estimated
Fri 12:39:15 AM 42.3626 98.4416 113° Southeast  Level Estimated
Fri 12:40:15 AM 42.3119 98.5993 114° Southeast  Level Estimated
Fri 12:41:15 AM 42.2609 98.7567 114° Southeast  Level Estimated
Fri 12:42:15 AM 42.2098 98.9138 114° Southeast  Level Estimated
Fri 12:43:15 AM 42.1584 99.0707 114° Southeast  Level Estimated
Fri 12:44:15 AM 42.1068 99.2274 114° Southeast  Level Estimated
Fri 12:45:15 AM 42.0549 99.3838 114° Southeast  Level Estimated
Fri 12:46:15 AM 42.0029 99.5399 114° Southeast  Level Estimated
Fri 12:47:15 AM 41.9507 99.6958 114° Southeast  Level Estimated
Fri 12:48:15 AM 41.8982 99.8514 114° Southeast  Level Estimated
Fri 12:49:15 AM 41.8456 100.0068 115° Southeast  Level Estimated
Fri 12:50:15 AM 41.7927 100.1619 115° Southeast  Level Estimated
Fri 12:51:15 AM 41.7396 100.3168 115° Southeast  Level Estimated
Fri 12:52:15 AM 41.6863 100.4714 115° Southeast  Level Estimated
Fri 12:53:15 AM 41.6328 100.6257 115° Southeast  Level Estimated
Fri 12:54:15 AM 41.5791 100.7798 115° Southeast  Level Estimated
Fri 12:55:15 AM 41.5252 100.9336 115° Southeast  Level Estimated
Fri 12:56:15 AM 41.4711 101.0872 115° Southeast  Level Estimated
Fri 12:57:15 AM 41.4168 101.2405 115° Southeast  Level Estimated
Fri 12:58:15 AM 41.3623 101.3936 115° Southeast  Level Estimated
Fri 12:59:15 AM 41.3076 101.5464 116° Southeast  Level Estimated
Fri 01:00:15 AM 41.2526 101.6990 116° Southeast  Level Estimated
Fri 01:01:15 AM 41.1975 101.8512 116° Southeast  Level Estimated
Fri 01:02:15 AM 41.1422 102.0033 116° Southeast  Level Estimated
Fri 01:03:15 AM 41.0867 102.1551 116° Southeast  Level Estimated
Fri 01:04:15 AM 41.0310 102.3066 116° Southeast  Level Estimated
Fri 01:05:15 AM 40.9750 102.4578 116° Southeast  Level Estimated
Fri 01:06:15 AM 40.9189 102.6088 116° Southeast  Level Estimated
Fri 01:07:15 AM 40.8626 102.7596 116° Southeast  Level Estimated
Fri 01:08:15 AM 40.8061 102.9101 116° Southeast  Level Estimated
Fri 01:09:15 AM 40.7494 103.0603 117° Southeast  Level Estimated
Fri 01:10:15 AM 40.6925 103.2103 117° Southeast  Level Estimated
Fri 01:11:15 AM 40.6354 103.3600 117° Southeast  Level Estimated
Fri 01:12:15 AM 40.5781 103.5095 117° Southeast  Level Estimated
Fri 01:13:15 AM 40.5206 103.6587 117° Southeast  Level Estimated
Fri 01:14:15 AM 40.4630 103.8077 117° Southeast  Level Estimated
Fri 01:15:15 AM 40.4051 103.9564 117° Southeast  Level Estimated
Fri 01:16:15 AM 40.3470 104.1048 117° Southeast  Level Estimated
Fri 01:17:15 AM 40.2888 104.2530 117° Southeast  Level Estimated
Fri 01:18:15 AM 40.2304 104.4009 117° Southeast  Level Estimated
Fri 01:19:15 AM 40.1718 104.5486 118° Southeast  Level Estimated
Fri 01:20:15 AM 40.1130 104.6961 118° Southeast  Level Estimated
Fri 01:21:15 AM 40.0540 104.8432 118° Southeast  Level Estimated
Fri 01:22:15 AM 39.9948 104.9901 118° Southeast  Level Estimated
Fri 01:23:15 AM 39.9354 105.1368 118° Southeast  Level Estimated
Fri 01:24:15 AM 39.8759 105.2832 118° Southeast  Level Estimated
Fri 01:25:15 AM 39.8162 105.4294 118° Southeast  Level Estimated
Fri 01:26:15 AM 39.7562 105.5752 118° Southeast  Level Estimated
Fri 01:27:15 AM 39.6962 105.7209 118° Southeast  Level Estimated
Fri 01:28:15 AM 39.6359 105.8663 118° Southeast  Level Estimated
Fri 01:29:15 AM 39.5754 106.0114 118° Southeast  Level Estimated
Fri 01:30:15 AM 39.5148 106.1563 119° Southeast  Level Estimated
Fri 01:31:15 AM 39.4540 106.3009 119° Southeast  Level Estimated
Fri 01:32:15 AM 39.3930 106.4453 119° Southeast  Level Estimated
Fri 01:33:15 AM 39.3318 106.5894 119° Southeast  Level Estimated
Fri 01:34:15 AM 39.2704 106.7333 119° Southeast  Level Estimated
Fri 01:35:15 AM 39.2089 106.8769 119° Southeast  Level Estimated
Fri 01:36:15 AM 39.1472 107.0203 119° Southeast  Level Estimated
Fri 01:37:15 AM 39.0853 107.1634 119° Southeast  Level Estimated
Fri 01:38:15 AM 39.0233 107.3063 119° Southeast  Level Estimated
Fri 01:39:15 AM 38.9610 107.4489 119° Southeast  Level Estimated
Fri 01:40:15 AM 38.8987 107.5912 119° Southeast  Level Estimated
Fri 01:41:15 AM 38.8361 107.7333 120° Southeast  Level Estimated
Fri 01:42:15 AM 38.7733 107.8752 120° Southeast  Level Estimated
Fri 01:43:15 AM 38.7104 108.0168 120° Southeast  Level Estimated
Fri 01:44:15 AM 38.6473 108.1582 120° Southeast  Level Estimated
Fri 01:45:15 AM 38.5841 108.2993 120° Southeast  Level Estimated
Fri 01:46:15 AM 38.5206 108.4401 120° Southeast  Level Estimated
Fri 01:47:15 AM 38.4570 108.5807 120° Southeast  Level Estimated
Fri 01:48:15 AM 38.3933 108.7211 120° Southeast  Level Estimated
Fri 01:49:15 AM 38.3293 108.8612 120° Southeast  Level Estimated
Fri 01:50:15 AM 38.2653 109.0011 120° Southeast  Level Estimated
Fri 01:51:15 AM 38.2010 109.1407 120° Southeast  Level Estimated
Fri 01:52:15 AM 38.1366 109.2801 120° Southeast  Level Estimated
Fri 01:53:15 AM 38.0720 109.4193 121° Southeast  Level Estimated
Fri 01:54:15 AM 38.0072 109.5581 121° Southeast  Level Estimated
Fri 01:55:15 AM 37.9423 109.6968 121° Southeast  Level Estimated
Fri 01:56:15 AM 37.8772 109.8352 121° Southeast  Level Estimated
Fri 01:57:15 AM 37.8120 109.9733 121° Southeast  Level Estimated
Fri 01:58:15 AM 37.7466 110.1113 121° Southeast  Level Estimated
Fri 01:59:15 AM 37.6810 110.2489 121° Southeast  Level Estimated
Fri 02:00:15 AM 37.6153 110.3863 121° Southeast  Level Estimated
Fri 02:01:15 AM 37.5494 110.5235 121° Southeast  Level Estimated
Fri 02:02:15 AM 37.4834 110.6605 121° Southeast  Level Estimated
Fri 02:03:15 AM 37.4172 110.7971 121° Southeast  Level Estimated
Fri 02:04:15 AM 37.3508 110.9336 122° Southeast  Level Estimated
Fri 02:05:15 AM 37.2843 111.0698 122° Southeast  Level Estimated
Fri 02:06:15 AM 37.2176 111.2058 122° Southeast  Level Estimated
Fri 02:07:15 AM 37.1508 111.3415 122° Southeast  Level Estimated
Fri 02:08:15 AM 37.0838 111.4770 122° Southeast  Level Estimated
Fri 02:09:15 AM 37.0167 111.6123 122° Southeast  Level Estimated
Fri 02:10:15 AM 36.9494 111.7473 122° Southeast  Level Estimated
Fri 02:11:15 AM 36.8820 111.8820 122° Southeast  Level Estimated
Fri 02:12:15 AM 36.8144 112.0166 122° Southeast  Level Estimated
Fri 02:13:15 AM 36.7467 112.1509 122° Southeast  Level Estimated
Fri 02:14:15 AM 36.6788 112.2849 122° Southeast  Level Estimated
Fri 02:15:15 AM 36.6107 112.4187 122° Southeast  Level Estimated
Fri 02:16:15 AM 36.5425 112.5523 122° Southeast  Level Estimated
Fri 02:17:15 AM 36.4742 112.6857 123° Southeast  Level Estimated
Fri 02:18:15 AM 36.4057 112.8188 123° Southeast  Level Estimated
Fri 02:19:15 AM 36.3371 112.9517 123° Southeast  Level Estimated
Fri 02:20:15 AM 36.2683 113.0843 123° Southeast  Level Estimated
Fri 02:21:15 AM 36.1994 113.2167 123° Southeast  Level Estimated
Fri 02:22:15 AM 36.1303 113.3489 123° Southeast  Level Estimated
Fri 02:23:15 AM 36.0611 113.4809 123° Southeast  Level Estimated
Fri 02:24:15 AM 35.9917 113.6126 123° Southeast  Level Estimated
Fri 02:25:15 AM 35.9222 113.7440 123° Southeast  Level Estimated
Fri 02:26:15 AM 35.8526 113.8753 123° Southeast  Level Estimated
Fri 02:27:15 AM 35.7828 114.0063 123° Southeast  Level Estimated
Fri 02:28:15 AM 35.7128 114.1371 123° Southeast  Level Estimated
Fri 02:29:15 AM 35.6427 114.2677 123° Southeast  Level Estimated
Fri 02:30:15 AM 35.5725 114.3980 124° Southeast  Level Estimated
Fri 02:31:15 AM 35.5022 114.5281 124° Southeast  Level Estimated
Fri 02:32:15 AM 35.4317 114.6580 124° Southeast  Level Estimated
Fri 02:33:15 AM 35.3610 114.7876 124° Southeast  Level Estimated
Fri 02:34:15 AM 35.2903 114.9170 124° Southeast  Level Estimated
Fri 02:35:15 AM 35.2194 115.0462 124° Southeast  Level Estimated
Fri 02:36:15 AM 35.1483 115.1752 124° Southeast  Level Estimated
Fri 02:37:15 AM 35.0771 115.3039 124° Southeast  Level Estimated
Fri 02:38:15 AM 35.0058 115.4325 124° Southeast  Level Estimated
Fri 02:39:15 AM 34.9344 115.5608 124° Southeast  Level Estimated
Fri 02:40:15 AM 34.8628 115.6888 124° Southeast  Level Estimated
Fri 02:41:15 AM 34.7910 115.8167 124° Southeast  Level Estimated
Fri 02:42:15 AM 34.7192 115.9443 124° Southeast  Level Estimated
Fri 02:43:15 AM 34.6472 116.0717 125° Southeast  Level Estimated
Fri 02:44:15 AM 34.5751 116.1989 125° Southeast  Level Estimated
Fri 02:45:15 AM 34.5028 116.3259 125° Southeast  Level Estimated
Fri 02:46:15 AM 34.4305 116.4526 125° Southeast  Level Estimated
Fri 02:47:15 AM 34.3579 116.5791 125° Southeast  Level Estimated
Fri 02:48:15 AM 34.2853 116.7054 125° Southeast  Level Estimated
Fri 02:49:15 AM 34.2125 116.8315 125° Southeast  Level Estimated
Fri 02:50:15 AM 34.1396 116.9574 125° Southeast  Level Estimated
Fri 02:51:15 AM 34.0666 117.0830 125° Southeast  Level Estimated
Fri 02:52:15 AM 33.9934 117.2085 125° Southeast  Level Estimated
Fri 02:53:15 AM 33.9201 117.3337 125° Southeast  Level Estimated
Fri 02:54:15 AM 33.8467 117.4587 125° Southeast  Level Estimated
Fri 02:55:15 AM 33.7732 117.5835 125° Southeast  Level Estimated
Fri 02:56:15 AM 33.6995 117.7081 125° Southeast  Level Estimated
Fri 02:57:15 AM 33.6257 117.8324 126° Southeast  Level Estimated
Fri 02:58:15 AM 33.5518 117.9566 126° Southeast  Level Estimated
Fri 02:59:15 AM 33.4778 118.0805 126° Southeast  Level Estimated
Fri 03:00:15 AM 33.4036 118.2042 126° Southeast  Level Estimated
Fri 03:01:15 AM 33.3293 118.3277 126° Southeast  Level Estimated
Fri 03:02:15 AM 33.2549 118.4510 126° Southeast  Level Estimated
Fri 03:03:15 AM 33.1804 118.5741 126° Southeast  Level Estimated
Fri 03:04:15 AM 33.1058 118.6970 126° Southeast  Level Estimated
Fri 03:05:15 AM 33.0310 118.8197 126° Southeast  Level Estimated
Fri 03:06:15 AM 32.9561 118.9421 126° Southeast  Level Estimated
Fri 03:07:15 AM 32.8811 119.0644 126° Southeast  Level Estimated
Fri 03:08:15 AM 32.8060 119.1864 126° Southeast  Level Estimated
Fri 03:09:15 AM 32.7307 119.3083 126° Southeast  Level Estimated
Fri 03:10:15 AM 32.6554 119.4299 126° Southeast  Level Estimated
Fri 03:11:15 AM 32.5799 119.5514 126° Southeast  Level Estimated
Fri 03:12:15 AM 32.5043 119.6726 127° Southeast  Level Estimated
Fri 03:13:15 AM 32.4286 119.7936 127° Southeast  Level Estimated
Fri 03:14:15 AM 32.3528 119.9144 127° Southeast  Level Estimated
Fri 03:15:15 AM 32.2768 120.0350 127° Southeast  Level Estimated
Fri 03:16:15 AM 32.2008 120.1555 127° Southeast  Level Estimated
Fri 03:17:15 AM 32.1246 120.2757 127° Southeast  Level Estimated
Fri 03:18:15 AM 32.0483 120.3957 127° Southeast  Level Estimated
Fri 03:19:15 AM 31.9719 120.5155 127° Southeast  Level Estimated
Fri 03:20:15 AM 31.8954 120.6351 127° Southeast  Level Estimated
Fri 03:21:15 AM 31.8188 120.7545 127° Southeast  Level Estimated
Fri 03:22:15 AM 31.7421 120.8738 127° Southeast  Level Estimated
Fri 03:23:15 AM 31.6652 120.9928 127° Southeast  Level Estimated
Fri 03:24:15 AM 31.5883 121.1116 127° Southeast  Level Estimated
Fri 03:25:15 AM 31.5112 121.2302 127° Southeast  Level Estimated
Fri 03:26:15 AM 31.4340 121.3487 127° Southeast  Level Estimated
Fri 03:27:15 AM 31.3568 121.4669 127° Southeast  Level Estimated
Fri 03:28:15 AM 31.2794 121.5849 128° Southeast  Level Estimated
Fri 03:29:15 AM 31.2019 121.7028 128° Southeast  Level Estimated
Fri 03:30:15 AM 31.1243 121.8204 308° West  Level Estimated
Fri 03:31:15 AM 31.2019 121.7028 128° Southeast  Level Estimated
Fri 03:32:15 AM 31.1243 121.8204 308° West  Level Estimated
Fri 03:33:15 AM 31.2019 121.7028 128° Southeast  Level Estimated
Fri 03:34:15 AM 31.1243 121.8204 308° West  Level Estimated
Fri 03:35:15 AM 31.2019 121.7028 128° Southeast  Level Estimated
Fri 03:36:15 AM 31.1243 121.8204 308° West  Level Estimated
Fri 03:37:15 AM 31.2019 121.7028 128° Southeast  Level Estimated
Fri 03:38:15 AM 31.1243 121.8204 308° West  Level Estimated
Fri 03:39:15 AM 31.2019 121.7028 128° Southeast  Level Estimated
Fri 03:40:15 AM 31.1243 121.8204 308° West  Level Estimated
Fri 03:41:15 AM 31.2019 121.7028 128° Southeast  Level Estimated
Fri 03:42:15 AM 31.1243 121.8204 308° West  Level Estimated
Fri 03:43:15 AM 31.2019 121.7028 128° Southeast  Level Estimated
Fri 03:44:15 AM 31.1243 121.8204 308° West  Level Estimated
Fri 03:45:15 AM 31.2019 121.7028 308° West  Level Estimated

Login

Don't have an account? Register now (free) for customized features, flight alerts, and more!